sensor_id;sensor_type;location;lat;lon;timestamp;temperature;humidity
37896;DHT22;23733;53.254;10.430;2022-07-06T00:01:40;16.40;99.90
37896;DHT22;23733;53.254;10.430;2022-07-06T00:04:07;16.30;99.90
37896;DHT22;23733;53.254;10.430;2022-07-06T00:06:33;16.20;99.90
37896;DHT22;23733;53.254;10.430;2022-07-06T00:08:59;16.20;99.90
37896;DHT22;23733;53.254;10.430;2022-07-06T00:11:25;16.20;99.90
37896;DHT22;23733;53.254;10.430;2022-07-06T00:13:51;16.10;99.90
37896;DHT22;23733;53.254;10.430;2022-07-06T00:16:18;16.10;99.90
37896;DHT22;23733;53.254;10.430;2022-07-06T00:18:45;16.00;99.90
37896;DHT22;23733;53.254;10.430;2022-07-06T00:21:11;16.00;99.90
37896;DHT22;23733;53.254;10.430;2022-07-06T00:23:37;16.10;99.90
37896;DHT22;23733;53.254;10.430;2022-07-06T00:26:03;16.00;99.90
37896;DHT22;23733;53.254;10.430;2022-07-06T00:28:29;16.00;99.90
37896;DHT22;23733;53.254;10.430;2022-07-06T00:30:55;16.00;99.90
37896;DHT22;23733;53.254;10.430;2022-07-06T00:33:21;16.00;99.90
37896;DHT22;23733;53.254;10.430;2022-07-06T00:35:48;16.00;99.90
37896;DHT22;23733;53.254;10.430;2022-07-06T00:38:14;16.00;99.90
37896;DHT22;23733;53.254;10.430;2022-07-06T00:40:41;16.00;99.90
37896;DHT22;23733;53.254;10.430;2022-07-06T00:43:07;16.10;99.90
37896;DHT22;23733;53.254;10.430;2022-07-06T00:45:33;16.00;99.90
37896;DHT22;23733;53.254;10.430;2022-07-06T00:47:59;16.00;99.90
37896;DHT22;23733;53.254;10.430;2022-07-06T00:50:25;16.00;99.90
37896;DHT22;23733;53.254;10.430;2022-07-06T00:53:00;15.90;99.90
37896;DHT22;23733;53.254;10.430;2022-07-06T00:55:29;15.90;99.90
37896;DHT22;23733;53.254;10.430;2022-07-06T00:57:56;15.80;99.90
37896;DHT22;23733;53.254;10.430;2022-07-06T01:00:25;15.90;99.90
37896;DHT22;23733;53.254;10.430;2022-07-06T01:02:52;15.80;99.90
37896;DHT22;23733;53.254;10.430;2022-07-06T01:05:18;15.70;99.90
37896;DHT22;23733;53.254;10.430;2022-07-06T01:07:46;15.70;99.90
37896;DHT22;23733;53.254;10.430;2022-07-06T01:10:14;15.70;99.90
37896;DHT22;23733;53.254;10.430;2022-07-06T01:12:42;15.70;99.90
37896;DHT22;23733;53.254;10.430;2022-07-06T01:15:17;15.80;99.90
37896;DHT22;23733;53.254;10.430;2022-07-06T01:17:44;15.80;99.90
37896;DHT22;23733;53.254;10.430;2022-07-06T01:20:13;15.80;99.90
37896;DHT22;23733;53.254;10.430;2022-07-06T01:22:40;15.70;99.90
37896;DHT22;23733;53.254;10.430;2022-07-06T01:25:07;15.70;99.90
37896;DHT22;23733;53.254;10.430;2022-07-06T01:27:34;15.70;99.90
37896;DHT22;23733;53.254;10.430;2022-07-06T01:30:05;15.70;99.90
37896;DHT22;23733;53.254;10.430;2022-07-06T01:32:31;15.70;99.90
37896;DHT22;23733;53.254;10.430;2022-07-06T01:34:58;15.70;99.90
37896;DHT22;23733;53.254;10.430;2022-07-06T01:37:24;15.60;99.90
37896;DHT22;23733;53.254;10.430;2022-07-06T01:39:53;15.60;99.90
37896;DHT22;23733;53.254;10.430;2022-07-06T01:42:19;15.60;99.90
37896;DHT22;23733;53.254;10.430;2022-07-06T01:44:45;15.60;99.90
37896;DHT22;23733;53.254;10.430;2022-07-06T01:47:11;15.60;99.90
37896;DHT22;23733;53.254;10.430;2022-07-06T01:49:37;15.70;99.90
37896;DHT22;23733;53.254;10.430;2022-07-06T01:52:03;15.60;99.90
37896;DHT22;23733;53.254;10.430;2022-07-06T01:54:29;15.60;99.90
37896;DHT22;23733;53.254;10.430;2022-07-06T01:56:55;15.60;99.90
37896;DHT22;23733;53.254;10.430;2022-07-06T01:59:21;15.60;99.90
37896;DHT22;23733;53.254;10.430;2022-07-06T02:01:47;15.50;99.90
37896;DHT22;23733;53.254;10.430;2022-07-06T02:04:13;15.50;99.90
37896;DHT22;23733;53.254;10.430;2022-07-06T02:06:39;15.50;99.90
37896;DHT22;23733;53.254;10.430;2022-07-06T02:09:05;15.60;99.90
37896;DHT22;23733;53.254;10.430;2022-07-06T02:11:32;15.50;99.90
37896;DHT22;23733;53.254;10.430;2022-07-06T02:13:58;15.50;99.90
37896;DHT22;23733;53.254;10.430;2022-07-06T02:16:24;15.60;99.90
37896;DHT22;23733;53.254;10.430;2022-07-06T02:18:50;15.60;99.90
37896;DHT22;23733;53.254;10.430;2022-07-06T02:21:16;15.60;99.90
37896;DHT22;23733;53.254;10.430;2022-07-06T02:23:42;15.60;99.90
37896;DHT22;23733;53.254;10.430;2022-07-06T02:26:08;15.60;99.90
37896;DHT22;23733;53.254;10.430;2022-07-06T02:28:34;15.60;99.90
37896;DHT22;23733;53.254;10.430;2022-07-06T02:31:00;15.60;99.90
37896;DHT22;23733;53.254;10.430;2022-07-06T02:33:26;15.50;99.90
37896;DHT22;23733;53.254;10.430;2022-07-06T02:35:52;15.50;99.90
37896;DHT22;23733;53.254;10.430;2022-07-06T02:38:18;15.50;99.90
37896;DHT22;23733;53.254;10.430;2022-07-06T02:40:44;15.50;99.90
37896;DHT22;23733;53.254;10.430;2022-07-06T02:43:10;15.50;99.90
37896;DHT22;23733;53.254;10.430;2022-07-06T02:45:36;15.50;99.90
37896;DHT22;23733;53.254;10.430;2022-07-06T02:48:03;15.50;99.90
37896;DHT22;23733;53.254;10.430;2022-07-06T02:50:29;15.50;99.90
37896;DHT22;23733;53.254;10.430;2022-07-06T02:52:55;15.50;99.90
37896;DHT22;23733;53.254;10.430;2022-07-06T02:55:21;15.50;99.90
37896;DHT22;23733;53.254;10.430;2022-07-06T02:57:47;15.50;99.90
37896;DHT22;23733;53.254;10.430;2022-07-06T03:00:13;15.50;99.90
37896;DHT22;23733;53.254;10.430;2022-07-06T03:02:39;15.50;99.90
37896;DHT22;23733;53.254;10.430;2022-07-06T03:05:06;15.40;99.90
37896;DHT22;23733;53.254;10.430;2022-07-06T03:07:32;15.40;99.90
37896;DHT22;23733;53.254;10.430;2022-07-06T03:09:58;15.40;99.90
37896;DHT22;23733;53.254;10.430;2022-07-06T03:12:24;15.40;99.90
37896;DHT22;23733;53.254;10.430;2022-07-06T03:14:50;15.40;99.90
37896;DHT22;23733;53.254;10.430;2022-07-06T03:17:16;15.40;99.90
37896;DHT22;23733;53.254;10.430;2022-07-06T03:19:42;15.40;99.90
37896;DHT22;23733;53.254;10.430;2022-07-06T03:22:08;15.30;99.90
37896;DHT22;23733;53.254;10.430;2022-07-06T03:24:34;15.30;99.90
37896;DHT22;23733;53.254;10.430;2022-07-06T03:27:00;15.30;99.90
37896;DHT22;23733;53.254;10.430;2022-07-06T03:29:26;15.40;99.90
37896;DHT22;23733;53.254;10.430;2022-07-06T03:31:52;15.50;99.90
37896;DHT22;23733;53.254;10.430;2022-07-06T03:34:18;15.50;99.90
37896;DHT22;23733;53.254;10.430;2022-07-06T03:36:44;15.50;99.90
37896;DHT22;23733;53.254;10.430;2022-07-06T03:39:10;15.50;99.90
37896;DHT22;23733;53.254;10.430;2022-07-06T03:41:37;15.40;99.90
37896;DHT22;23733;53.254;10.430;2022-07-06T03:44:03;15.30;99.90
37896;DHT22;23733;53.254;10.430;2022-07-06T03:46:29;15.30;99.90
37896;DHT22;23733;53.254;10.430;2022-07-06T03:48:55;15.30;99.90
37896;DHT22;23733;53.254;10.430;2022-07-06T03:51:21;15.40;99.90
37896;DHT22;23733;53.254;10.430;2022-07-06T03:53:47;15.30;99.90
37896;DHT22;23733;53.254;10.430;2022-07-06T03:56:13;15.30;99.90
37896;DHT22;23733;53.254;10.430;2022-07-06T03:58:58;15.30;99.90
37896;DHT22;23733;53.254;10.430;2022-07-06T04:01:25;15.30;99.90
37896;DHT22;23733;53.254;10.430;2022-07-06T04:03:51;15.30;99.90
37896;DHT22;23733;53.254;10.430;2022-07-06T04:06:17;15.30;99.90
37896;DHT22;23733;53.254;10.430;2022-07-06T04:08:43;15.20;99.90
37896;DHT22;23733;53.254;10.430;2022-07-06T04:11:09;15.20;99.90
37896;DHT22;23733;53.254;10.430;2022-07-06T04:13:36;15.20;99.90
37896;DHT22;23733;53.254;10.430;2022-07-06T04:16:03;15.20;99.90
37896;DHT22;23733;53.254;10.430;2022-07-06T04:18:29;15.20;99.90
37896;DHT22;23733;53.254;10.430;2022-07-06T04:20:55;15.20;99.90
37896;DHT22;23733;53.254;10.430;2022-07-06T04:23:23;15.20;99.90
37896;DHT22;23733;53.254;10.430;2022-07-06T04:25:49;15.30;99.90
37896;DHT22;23733;53.254;10.430;2022-07-06T04:28:15;15.30;99.90
37896;DHT22;23733;53.254;10.430;2022-07-06T04:30:42;15.30;99.90
37896;DHT22;23733;53.254;10.430;2022-07-06T04:33:08;15.30;99.90
37896;DHT22;23733;53.254;10.430;2022-07-06T04:35:34;15.30;99.90
37896;DHT22;23733;53.254;10.430;2022-07-06T04:38:00;15.30;99.90
37896;DHT22;23733;53.254;10.430;2022-07-06T04:40:26;15.40;99.90
37896;DHT22;23733;53.254;10.430;2022-07-06T04:42:52;15.40;99.90
37896;DHT22;23733;53.254;10.430;2022-07-06T04:45:18;15.40;99.90
37896;DHT22;23733;53.254;10.430;2022-07-06T04:47:44;15.50;99.90
37896;DHT22;23733;53.254;10.430;2022-07-06T04:50:11;15.50;99.90
37896;DHT22;23733;53.254;10.430;2022-07-06T04:52:38;15.40;99.90
37896;DHT22;23733;53.254;10.430;2022-07-06T04:55:04;15.40;99.90
37896;DHT22;23733;53.254;10.430;2022-07-06T04:57:32;15.40;99.90
37896;DHT22;23733;53.254;10.430;2022-07-06T04:59:58;15.40;99.90
37896;DHT22;23733;53.254;10.430;2022-07-06T05:02:24;15.50;99.90
37896;DHT22;23733;53.254;10.430;2022-07-06T05:04:50;15.50;99.90
37896;DHT22;23733;53.254;10.430;2022-07-06T05:07:16;15.50;99.90
37896;DHT22;23733;53.254;10.430;2022-07-06T05:09:42;15.50;99.90
37896;DHT22;23733;53.254;10.430;2022-07-06T05:12:09;15.50;99.90
37896;DHT22;23733;53.254;10.430;2022-07-06T05:14:35;15.60;99.90
37896;DHT22;23733;53.254;10.430;2022-07-06T05:17:02;15.50;99.90
37896;DHT22;23733;53.254;10.430;2022-07-06T05:19:28;15.50;99.90
37896;DHT22;23733;53.254;10.430;2022-07-06T05:21:54;15.50;99.90
37896;DHT22;23733;53.254;10.430;2022-07-06T05:24:20;15.50;99.90
37896;DHT22;23733;53.254;10.430;2022-07-06T05:26:46;15.50;99.90
37896;DHT22;23733;53.254;10.430;2022-07-06T05:29:12;15.50;99.90
37896;DHT22;23733;53.254;10.430;2022-07-06T05:31:38;15.50;99.90
37896;DHT22;23733;53.254;10.430;2022-07-06T05:34:04;15.50;99.90
37896;DHT22;23733;53.254;10.430;2022-07-06T05:36:30;15.60;99.90
37896;DHT22;23733;53.254;10.430;2022-07-06T05:38:56;15.60;99.90
37896;DHT22;23733;53.254;10.430;2022-07-06T05:41:22;15.60;99.90
37896;DHT22;23733;53.254;10.430;2022-07-06T05:43:49;15.70;99.90
37896;DHT22;23733;53.254;10.430;2022-07-06T05:46:15;15.60;99.90
37896;DHT22;23733;53.254;10.430;2022-07-06T05:48:41;15.70;99.90
37896;DHT22;23733;53.254;10.430;2022-07-06T05:51:25;15.70;99.90
37896;DHT22;23733;53.254;10.430;2022-07-06T05:53:51;15.70;99.90
37896;DHT22;23733;53.254;10.430;2022-07-06T05:56:17;15.70;99.90
37896;DHT22;23733;53.254;10.430;2022-07-06T05:58:43;15.70;99.90
37896;DHT22;23733;53.254;10.430;2022-07-06T06:01:09;15.70;99.90
37896;DHT22;23733;53.254;10.430;2022-07-06T06:03:35;15.80;99.90
37896;DHT22;23733;53.254;10.430;2022-07-06T06:06:02;15.70;99.90
37896;DHT22;23733;53.254;10.430;2022-07-06T06:08:28;15.80;99.90
37896;DHT22;23733;53.254;10.430;2022-07-06T06:10:54;15.80;99.90
37896;DHT22;23733;53.254;10.430;2022-07-06T06:13:20;15.80;99.90
37896;DHT22;23733;53.254;10.430;2022-07-06T06:15:46;15.80;99.90
37896;DHT22;23733;53.254;10.430;2022-07-06T06:18:12;15.90;99.90
37896;DHT22;23733;53.254;10.430;2022-07-06T06:20:38;15.90;99.90
37896;DHT22;23733;53.254;10.430;2022-07-06T06:23:04;15.90;99.90
37896;DHT22;23733;53.254;10.430;2022-07-06T06:25:38;15.90;99.90
37896;DHT22;23733;53.254;10.430;2022-07-06T06:28:06;15.90;99.90
37896;DHT22;23733;53.254;10.430;2022-07-06T06:30:33;16.00;99.90
37896;DHT22;23733;53.254;10.430;2022-07-06T06:33:13;15.90;99.90
37896;DHT22;23733;53.254;10.430;2022-07-06T06:35:50;16.00;99.90
37896;DHT22;23733;53.254;10.430;2022-07-06T06:38:18;16.00;99.90
37896;DHT22;23733;53.254;10.430;2022-07-06T06:40:44;16.00;99.90
37896;DHT22;23733;53.254;10.430;2022-07-06T06:43:10;16.00;99.90
37896;DHT22;23733;53.254;10.430;2022-07-06T06:45:36;16.00;99.90
37896;DHT22;23733;53.254;10.430;2022-07-06T06:48:03;16.10;99.90
37896;DHT22;23733;53.254;10.430;2022-07-06T06:50:29;16.10;99.90
37896;DHT22;23733;53.254;10.430;2022-07-06T06:52:55;16.10;99.90
37896;DHT22;23733;53.254;10.430;2022-07-06T06:55:21;16.20;99.90
37896;DHT22;23733;53.254;10.430;2022-07-06T06:57:47;16.20;99.90
37896;DHT22;23733;53.254;10.430;2022-07-06T07:00:14;16.30;99.90
37896;DHT22;23733;53.254;10.430;2022-07-06T07:02:40;16.30;99.90
37896;DHT22;23733;53.254;10.430;2022-07-06T07:05:06;16.40;99.90
37896;DHT22;23733;53.254;10.430;2022-07-06T07:07:32;16.40;99.90
37896;DHT22;23733;53.254;10.430;2022-07-06T07:09:59;16.50;99.90
37896;DHT22;23733;53.254;10.430;2022-07-06T07:12:25;16.50;99.90
37896;DHT22;23733;53.254;10.430;2022-07-06T07:14:51;16.60;99.90
37896;DHT22;23733;53.254;10.430;2022-07-06T07:17:17;16.60;99.90
37896;DHT22;23733;53.254;10.430;2022-07-06T07:19:43;16.70;99.90
37896;DHT22;23733;53.254;10.430;2022-07-06T07:22:09;16.70;99.90
37896;DHT22;23733;53.254;10.430;2022-07-06T07:24:35;16.70;99.90
37896;DHT22;23733;53.254;10.430;2022-07-06T07:27:01;16.70;99.90
37896;DHT22;23733;53.254;10.430;2022-07-06T07:29:27;16.70;99.90
37896;DHT22;23733;53.254;10.430;2022-07-06T07:31:53;16.60;99.90
37896;DHT22;23733;53.254;10.430;2022-07-06T07:34:19;16.60;99.90
37896;DHT22;23733;53.254;10.430;2022-07-06T07:36:45;16.60;99.90
37896;DHT22;23733;53.254;10.430;2022-07-06T07:39:11;16.50;99.90
37896;DHT22;23733;53.254;10.430;2022-07-06T07:41:37;16.60;99.90
37896;DHT22;23733;53.254;10.430;2022-07-06T07:44:03;16.70;99.90
37896;DHT22;23733;53.254;10.430;2022-07-06T07:46:29;16.70;99.90
37896;DHT22;23733;53.254;10.430;2022-07-06T07:48:55;16.80;99.90
37896;DHT22;23733;53.254;10.430;2022-07-06T07:51:21;16.80;99.90
37896;DHT22;23733;53.254;10.430;2022-07-06T07:53:47;16.90;99.90
37896;DHT22;23733;53.254;10.430;2022-07-06T07:56:13;17.00;99.90
37896;DHT22;23733;53.254;10.430;2022-07-06T07:58:39;16.90;99.90
37896;DHT22;23733;53.254;10.430;2022-07-06T08:01:05;17.00;99.90
37896;DHT22;23733;53.254;10.430;2022-07-06T08:03:31;17.00;99.90
37896;DHT22;23733;53.254;10.430;2022-07-06T08:05:58;17.10;99.90
37896;DHT22;23733;53.254;10.430;2022-07-06T08:08:24;17.20;99.90
37896;DHT22;23733;53.254;10.430;2022-07-06T08:10:50;17.10;99.90
37896;DHT22;23733;53.254;10.430;2022-07-06T08:13:17;17.20;99.90
37896;DHT22;23733;53.254;10.430;2022-07-06T08:15:43;17.30;99.90
37896;DHT22;23733;53.254;10.430;2022-07-06T08:18:09;17.30;99.90
37896;DHT22;23733;53.254;10.430;2022-07-06T08:20:36;17.30;99.90
37896;DHT22;23733;53.254;10.430;2022-07-06T08:23:02;17.40;99.90
37896;DHT22;23733;53.254;10.430;2022-07-06T08:25:29;17.50;99.90
37896;DHT22;23733;53.254;10.430;2022-07-06T08:27:55;17.60;99.90
37896;DHT22;23733;53.254;10.430;2022-07-06T08:30:21;17.80;99.90
37896;DHT22;23733;53.254;10.430;2022-07-06T08:32:47;17.80;99.90
37896;DHT22;23733;53.254;10.430;2022-07-06T08:35:13;17.80;99.90
37896;DHT22;23733;53.254;10.430;2022-07-06T08:37:39;17.90;99.90
37896;DHT22;23733;53.254;10.430;2022-07-06T08:40:06;17.90;99.90
37896;DHT22;23733;53.254;10.430;2022-07-06T08:42:34;17.90;99.90
37896;DHT22;23733;53.254;10.430;2022-07-06T08:45:02;17.80;99.90
37896;DHT22;23733;53.254;10.430;2022-07-06T08:47:28;17.70;99.90
37896;DHT22;23733;53.254;10.430;2022-07-06T08:49:58;17.60;99.90
37896;DHT22;23733;53.254;10.430;2022-07-06T08:52:24;17.60;99.90
37896;DHT22;23733;53.254;10.430;2022-07-06T08:54:50;17.60;99.90
37896;DHT22;23733;53.254;10.430;2022-07-06T08:57:17;17.60;99.90
37896;DHT22;23733;53.254;10.430;2022-07-06T08:59:43;17.70;99.90
37896;DHT22;23733;53.254;10.430;2022-07-06T09:02:10;17.70;99.90
37896;DHT22;23733;53.254;10.430;2022-07-06T09:04:37;17.70;99.90
37896;DHT22;23733;53.254;10.430;2022-07-06T09:07:04;17.70;99.90
37896;DHT22;23733;53.254;10.430;2022-07-06T09:09:30;17.60;99.90
37896;DHT22;23733;53.254;10.430;2022-07-06T09:11:57;17.60;99.90
37896;DHT22;23733;53.254;10.430;2022-07-06T09:14:23;17.60;99.90
37896;DHT22;23733;53.254;10.430;2022-07-06T09:17:02;17.60;99.90
37896;DHT22;23733;53.254;10.430;2022-07-06T09:19:30;17.50;99.90
37896;DHT22;23733;53.254;10.430;2022-07-06T09:21:57;17.50;99.90
37896;DHT22;23733;53.254;10.430;2022-07-06T09:24:23;17.50;99.90
37896;DHT22;23733;53.254;10.430;2022-07-06T09:26:50;17.50;99.90
37896;DHT22;23733;53.254;10.430;2022-07-06T09:29:16;17.50;99.90
37896;DHT22;23733;53.254;10.430;2022-07-06T09:31:42;17.50;99.90
37896;DHT22;23733;53.254;10.430;2022-07-06T09:34:10;17.50;99.90
37896;DHT22;23733;53.254;10.430;2022-07-06T09:36:44;17.10;99.90
37896;DHT22;23733;53.254;10.430;2022-07-06T09:41:41;16.00;99.90
37896;DHT22;23733;53.254;10.430;2022-07-06T09:44:07;15.70;99.90
37896;DHT22;23733;53.254;10.430;2022-07-06T09:46:41;15.60;99.90
37896;DHT22;23733;53.254;10.430;2022-07-06T09:49:07;15.50;99.90
37896;DHT22;23733;53.254;10.430;2022-07-06T09:51:37;15.40;99.90
37896;DHT22;23733;53.254;10.430;2022-07-06T09:54:07;15.40;99.90
37896;DHT22;23733;53.254;10.430;2022-07-06T09:56:40;15.40;99.90
37896;DHT22;23733;53.254;10.430;2022-07-06T09:59:14;15.40;99.90
37896;DHT22;23733;53.254;10.430;2022-07-06T10:01:41;15.60;99.90
37896;DHT22;23733;53.254;10.430;2022-07-06T10:04:08;15.70;99.90
37896;DHT22;23733;53.254;10.430;2022-07-06T10:06:35;15.60;99.90
37896;DHT22;23733;53.254;10.430;2022-07-06T10:09:05;15.70;99.90
37896;DHT22;23733;53.254;10.430;2022-07-06T10:11:37;15.80;99.90
37896;DHT22;23733;53.254;10.430;2022-07-06T10:14:05;16.00;99.90
37896;DHT22;23733;53.254;10.430;2022-07-06T10:16:31;16.20;99.90
37896;DHT22;23733;53.254;10.430;2022-07-06T10:18:58;16.30;99.90
37896;DHT22;23733;53.254;10.430;2022-07-06T10:21:27;16.30;99.90
37896;DHT22;23733;53.254;10.430;2022-07-06T10:23:53;16.50;99.90
37896;DHT22;23733;53.254;10.430;2022-07-06T10:26:21;16.60;99.90
37896;DHT22;23733;53.254;10.430;2022-07-06T10:28:48;16.70;99.90
37896;DHT22;23733;53.254;10.430;2022-07-06T10:31:15;16.70;99.90
37896;DHT22;23733;53.254;10.430;2022-07-06T10:33:43;16.80;99.90
37896;DHT22;23733;53.254;10.430;2022-07-06T10:36:10;16.80;99.90
37896;DHT22;23733;53.254;10.430;2022-07-06T10:38:37;16.80;99.90
37896;DHT22;23733;53.254;10.430;2022-07-06T10:41:07;16.80;99.90
37896;DHT22;23733;53.254;10.430;2022-07-06T10:43:42;16.80;99.90
37896;DHT22;23733;53.254;10.430;2022-07-06T10:46:15;16.90;99.90
37896;DHT22;23733;53.254;10.430;2022-07-06T10:48:44;17.00;99.90
37896;DHT22;23733;53.254;10.430;2022-07-06T10:51:27;17.00;99.90
37896;DHT22;23733;53.254;10.430;2022-07-06T10:53:57;17.10;99.90
37896;DHT22;23733;53.254;10.430;2022-07-06T10:56:37;17.10;99.90
37896;DHT22;23733;53.254;10.430;2022-07-06T10:59:23;16.90;99.90
37896;DHT22;23733;53.254;10.430;2022-07-06T11:04:37;17.00;99.90
37896;DHT22;23733;53.254;10.430;2022-07-06T11:07:09;17.10;99.90
37896;DHT22;23733;53.254;10.430;2022-07-06T11:09:36;17.10;99.90
37896;DHT22;23733;53.254;10.430;2022-07-06T11:12:20;17.10;99.90
37896;DHT22;23733;53.254;10.430;2022-07-06T11:14:47;17.10;99.90
37896;DHT22;23733;53.254;10.430;2022-07-06T11:17:14;17.20;99.90
37896;DHT22;23733;53.254;10.430;2022-07-06T11:20:08;17.30;99.90
37896;DHT22;23733;53.254;10.430;2022-07-06T11:22:36;17.30;99.90
37896;DHT22;23733;53.254;10.430;2022-07-06T11:25:03;17.40;99.90
37896;DHT22;23733;53.254;10.430;2022-07-06T11:27:30;17.50;99.90
37896;DHT22;23733;53.254;10.430;2022-07-06T11:29:56;17.50;99.90
37896;DHT22;23733;53.254;10.430;2022-07-06T11:32:26;17.50;99.90
37896;DHT22;23733;53.254;10.430;2022-07-06T11:34:52;17.60;99.90
37896;DHT22;23733;53.254;10.430;2022-07-06T11:37:19;17.70;99.90
37896;DHT22;23733;53.254;10.430;2022-07-06T11:39:47;17.70;99.90
37896;DHT22;23733;53.254;10.430;2022-07-06T11:42:16;17.80;99.90
37896;DHT22;23733;53.254;10.430;2022-07-06T11:44:45;17.80;99.90
37896;DHT22;23733;53.254;10.430;2022-07-06T11:47:12;17.90;99.90
37896;DHT22;23733;53.254;10.430;2022-07-06T11:49:40;17.90;99.90
37896;DHT22;23733;53.254;10.430;2022-07-06T11:52:12;18.00;99.90
37896;DHT22;23733;53.254;10.430;2022-07-06T11:54:39;18.00;99.90
37896;DHT22;23733;53.254;10.430;2022-07-06T11:57:09;17.90;99.90
37896;DHT22;23733;53.254;10.430;2022-07-06T11:59:37;17.90;99.90
37896;DHT22;23733;53.254;10.430;2022-07-06T12:02:08;17.90;99.90
37896;DHT22;23733;53.254;10.430;2022-07-06T12:04:39;17.80;99.90
37896;DHT22;23733;53.254;10.430;2022-07-06T12:07:07;17.80;99.90
37896;DHT22;23733;53.254;10.430;2022-07-06T12:09:35;17.90;99.90
37896;DHT22;23733;53.254;10.430;2022-07-06T12:12:03;17.90;99.90
37896;DHT22;23733;53.254;10.430;2022-07-06T12:14:31;18.00;99.90
37896;DHT22;23733;53.254;10.430;2022-07-06T12:17:06;18.00;99.90
37896;DHT22;23733;53.254;10.430;2022-07-06T12:19:33;18.00;99.90
37896;DHT22;23733;53.254;10.430;2022-07-06T12:21:59;18.00;99.90
37896;DHT22;23733;53.254;10.430;2022-07-06T12:24:29;18.00;99.90
37896;DHT22;23733;53.254;10.430;2022-07-06T12:27:09;18.00;99.90
37896;DHT22;23733;53.254;10.430;2022-07-06T12:29:36;18.00;99.90
37896;DHT22;23733;53.254;10.430;2022-07-06T12:32:02;18.10;99.90
37896;DHT22;23733;53.254;10.430;2022-07-06T12:34:29;18.00;99.90
37896;DHT22;23733;53.254;10.430;2022-07-06T12:37:06;18.00;99.90
37896;DHT22;23733;53.254;10.430;2022-07-06T12:39:44;17.90;99.90
37896;DHT22;23733;53.254;10.430;2022-07-06T12:42:12;18.00;99.90
37896;DHT22;23733;53.254;10.430;2022-07-06T12:44:46;18.20;99.90
37896;DHT22;23733;53.254;10.430;2022-07-06T12:47:16;18.20;99.90
37896;DHT22;23733;53.254;10.430;2022-07-06T12:49:42;18.30;99.90
37896;DHT22;23733;53.254;10.430;2022-07-06T12:52:10;18.30;99.90
37896;DHT22;23733;53.254;10.430;2022-07-06T12:54:42;18.40;99.90
37896;DHT22;23733;53.254;10.430;2022-07-06T12:57:19;18.60;99.90
37896;DHT22;23733;53.254;10.430;2022-07-06T13:02:24;18.70;99.90
37896;DHT22;23733;53.254;10.430;2022-07-06T13:05:01;18.70;99.90
37896;DHT22;23733;53.254;10.430;2022-07-06T13:07:29;18.70;99.90
37896;DHT22;23733;53.254;10.430;2022-07-06T13:10:10;18.80;99.90
37896;DHT22;23733;53.254;10.430;2022-07-06T13:12:36;18.90;99.90
37896;DHT22;23733;53.254;10.430;2022-07-06T13:15:03;19.10;99.90
37896;DHT22;23733;53.254;10.430;2022-07-06T13:17:30;19.10;99.90
37896;DHT22;23733;53.254;10.430;2022-07-06T13:19:59;19.10;99.90
37896;DHT22;23733;53.254;10.430;2022-07-06T13:22:25;19.20;99.90
37896;DHT22;23733;53.254;10.430;2022-07-06T13:24:51;19.30;99.90
37896;DHT22;23733;53.254;10.430;2022-07-06T13:27:17;19.30;99.90
37896;DHT22;23733;53.254;10.430;2022-07-06T13:29:43;19.40;99.90
37896;DHT22;23733;53.254;10.430;2022-07-06T13:32:09;19.50;99.90
37896;DHT22;23733;53.254;10.430;2022-07-06T13:34:35;19.50;99.90
37896;DHT22;23733;53.254;10.430;2022-07-06T13:37:03;19.50;99.90
37896;DHT22;23733;53.254;10.430;2022-07-06T13:39:30;19.50;99.90
37896;DHT22;23733;53.254;10.430;2022-07-06T13:41:57;19.50;99.90
37896;DHT22;23733;53.254;10.430;2022-07-06T13:44:23;19.60;99.90
37896;DHT22;23733;53.254;10.430;2022-07-06T13:46:49;19.60;99.90
37896;DHT22;23733;53.254;10.430;2022-07-06T13:49:16;19.50;99.90
37896;DHT22;23733;53.254;10.430;2022-07-06T13:51:42;19.50;99.90
37896;DHT22;23733;53.254;10.430;2022-07-06T13:54:08;19.50;99.90
37896;DHT22;23733;53.254;10.430;2022-07-06T13:56:36;19.50;99.90
37896;DHT22;23733;53.254;10.430;2022-07-06T13:59:02;19.50;99.90
37896;DHT22;23733;53.254;10.430;2022-07-06T14:01:28;19.50;99.90
37896;DHT22;23733;53.254;10.430;2022-07-06T14:03:54;19.60;99.90
37896;DHT22;23733;53.254;10.430;2022-07-06T14:06:20;19.60;99.90
37896;DHT22;23733;53.254;10.430;2022-07-06T14:08:47;19.60;99.90
37896;DHT22;23733;53.254;10.430;2022-07-06T14:11:13;19.70;99.90
37896;DHT22;23733;53.254;10.430;2022-07-06T14:13:39;19.70;99.90
37896;DHT22;23733;53.254;10.430;2022-07-06T14:16:06;19.70;99.90
37896;DHT22;23733;53.254;10.430;2022-07-06T14:18:35;19.80;99.90
37896;DHT22;23733;53.254;10.430;2022-07-06T14:21:01;19.80;99.90
37896;DHT22;23733;53.254;10.430;2022-07-06T14:23:28;19.80;99.90
37896;DHT22;23733;53.254;10.430;2022-07-06T14:25:57;19.80;99.90
37896;DHT22;23733;53.254;10.430;2022-07-06T14:28:23;19.90;99.90
37896;DHT22;23733;53.254;10.430;2022-07-06T14:30:49;19.60;99.90
37896;DHT22;23733;53.254;10.430;2022-07-06T14:33:15;19.60;99.90
37896;DHT22;23733;53.254;10.430;2022-07-06T14:35:46;19.60;99.90
37896;DHT22;23733;53.254;10.430;2022-07-06T14:38:16;19.60;99.90
37896;DHT22;23733;53.254;10.430;2022-07-06T14:40:43;19.70;99.90
37896;DHT22;23733;53.254;10.430;2022-07-06T14:43:09;19.80;99.90
37896;DHT22;23733;53.254;10.430;2022-07-06T14:45:36;19.70;99.90
37896;DHT22;23733;53.254;10.430;2022-07-06T14:48:02;19.70;99.90
37896;DHT22;23733;53.254;10.430;2022-07-06T14:50:28;19.70;99.90
37896;DHT22;23733;53.254;10.430;2022-07-06T14:52:54;19.80;99.90
37896;DHT22;23733;53.254;10.430;2022-07-06T14:55:21;20.00;99.90
37896;DHT22;23733;53.254;10.430;2022-07-06T14:57:47;20.00;99.90
37896;DHT22;23733;53.254;10.430;2022-07-06T15:00:14;20.00;99.90
37896;DHT22;23733;53.254;10.430;2022-07-06T15:02:41;20.00;99.90
37896;DHT22;23733;53.254;10.430;2022-07-06T15:05:09;19.90;99.90
37896;DHT22;23733;53.254;10.430;2022-07-06T15:07:35;19.90;99.90
37896;DHT22;23733;53.254;10.430;2022-07-06T15:10:03;20.00;99.90
37896;DHT22;23733;53.254;10.430;2022-07-06T15:12:29;20.00;99.90
37896;DHT22;23733;53.254;10.430;2022-07-06T15:14:55;20.00;99.90
37896;DHT22;23733;53.254;10.430;2022-07-06T15:17:21;20.00;99.90
37896;DHT22;23733;53.254;10.430;2022-07-06T15:19:47;19.90;99.90
37896;DHT22;23733;53.254;10.430;2022-07-06T15:22:13;19.90;99.90
37896;DHT22;23733;53.254;10.430;2022-07-06T15:24:39;19.80;99.90